createdAt,value
2018-07-20T00:00:49.514Z,0.00
2018-07-20T00:01:49.444Z,0.00
2018-07-20T00:02:49.364Z,0.00
2018-07-20T00:03:49.298Z,0.00
2018-07-20T00:04:49.218Z,0.00
2018-07-20T00:05:49.146Z,0.00
2018-07-20T00:06:49.064Z,0.00
2018-07-20T00:07:48.999Z,0.00
2018-07-20T00:08:48.918Z,0.00
2018-07-20T00:09:48.849Z,0.00
2018-07-20T00:10:48.769Z,0.00
2018-07-20T00:11:48.700Z,0.00
2018-07-20T00:12:48.624Z,0.00
2018-07-20T00:13:48.550Z,0.00
2018-07-20T00:14:48.468Z,0.00
2018-07-20T00:15:48.401Z,0.00
2018-07-20T00:16:48.375Z,0.00
2018-07-20T00:17:48.255Z,0.00
2018-07-20T00:18:48.167Z,0.00
2018-07-20T00:19:48.102Z,0.00
2018-07-20T00:20:48.017Z,0.00
2018-07-20T00:21:47.949Z,0.00
2018-07-20T00:22:47.867Z,0.00
2018-07-20T00:23:47.801Z,0.00
2018-07-20T00:24:47.719Z,0.00
2018-07-20T00:25:47.657Z,0.00
2018-07-20T00:26:47.570Z,0.00
2018-07-20T00:27:47.502Z,0.00
2018-07-20T00:28:47.419Z,0.00
2018-07-20T00:29:47.350Z,0.00
2018-07-20T00:30:47.269Z,0.00
2018-07-20T00:31:47.201Z,0.00
2018-07-20T00:32:47.118Z,0.00
2018-07-20T00:33:47.050Z,0.00
2018-07-20T00:34:46.968Z,0.00
2018-07-20T00:35:46.896Z,0.00
2018-07-20T00:36:46.818Z,0.00
2018-07-20T00:37:46.751Z,0.00
2018-07-20T00:38:46.668Z,0.00
2018-07-20T00:39:46.599Z,0.00
2018-07-20T00:40:46.513Z,0.00
2018-07-20T00:41:46.448Z,0.00
2018-07-20T00:42:46.368Z,0.00
2018-07-20T00:43:46.300Z,0.00
2018-07-20T00:44:46.218Z,0.00
2018-07-20T00:45:46.152Z,0.00
2018-07-20T00:46:46.063Z,0.00
2018-07-20T00:47:45.998Z,0.00
2018-07-20T00:48:45.916Z,0.00
2018-07-20T00:49:45.845Z,0.00
2018-07-20T00:50:45.768Z,0.00
2018-07-20T00:51:45.695Z,0.00
2018-07-20T00:52:45.616Z,0.00
2018-07-20T00:53:45.547Z,0.00
2018-07-20T00:54:45.465Z,0.00
2018-07-20T00:55:45.395Z,0.00
2018-07-20T00:56:45.314Z,0.00
2018-07-20T00:57:45.279Z,0.00
2018-07-20T00:58:45.163Z,0.00
2018-07-20T00:59:45.097Z,0.00
2018-07-20T01:00:45.014Z,0.00
2018-07-20T01:01:44.954Z,0.00
2018-07-20T01:02:44.862Z,0.00
2018-07-20T01:03:44.795Z,0.00
2018-07-20T01:04:44.714Z,0.00
2018-07-20T01:05:44.646Z,0.00
2018-07-20T01:06:44.563Z,0.00
2018-07-20T01:07:44.501Z,0.00
2018-07-20T01:08:44.410Z,0.00
2018-07-20T01:09:44.340Z,0.00
2018-07-20T01:10:44.259Z,0.00
2018-07-20T01:11:44.195Z,0.00
2018-07-20T01:12:44.112Z,0.00
2018-07-20T01:13:44.040Z,0.00
2018-07-20T01:14:43.959Z,0.00
2018-07-20T01:15:43.890Z,0.00
2018-07-20T01:16:43.808Z,0.00
2018-07-20T01:17:43.738Z,0.00
2018-07-20T01:18:43.652Z,0.00
2018-07-20T01:19:43.592Z,0.00
2018-07-20T01:20:43.505Z,0.00
2018-07-20T01:21:43.440Z,0.00
2018-07-20T01:22:43.350Z,0.00
2018-07-20T01:23:43.287Z,0.00
2018-07-20T01:24:43.203Z,0.00
2018-07-20T01:25:43.139Z,0.00
2018-07-20T01:26:43.049Z,0.00
2018-07-20T01:27:42.985Z,0.00
2018-07-20T01:28:42.903Z,0.00
2018-07-20T01:29:42.832Z,0.00
2018-07-20T01:30:42.752Z,0.00
2018-07-20T01:31:42.682Z,0.00
2018-07-20T01:32:42.600Z,0.00
2018-07-20T01:33:42.529Z,0.00
2018-07-20T01:34:42.448Z,0.00
2018-07-20T01:35:42.379Z,0.00
2018-07-20T01:36:42.294Z,0.00
2018-07-20T01:37:42.227Z,0.00
2018-07-20T01:38:42.145Z,0.00
2018-07-20T01:39:42.074Z,0.00
2018-07-20T01:40:41.998Z,0.00
2018-07-20T01:41:41.927Z,0.00
2018-07-20T01:42:41.849Z,0.00
2018-07-20T01:43:41.775Z,0.00
2018-07-20T01:44:41.694Z,0.00
2018-07-20T01:45:41.626Z,0.00
2018-07-20T01:46:41.539Z,0.00
2018-07-20T01:47:41.480Z,0.00
2018-07-20T01:48:41.393Z,0.00
2018-07-20T01:49:41.319Z,0.00
2018-07-20T01:50:41.237Z,0.00
2018-07-20T01:51:41.170Z,0.00
2018-07-20T01:52:41.085Z,0.00
2018-07-20T01:53:41.012Z,0.00
2018-07-20T01:54:40.935Z,0.00
2018-07-20T01:55:40.872Z,0.00
2018-07-20T01:56:40.786Z,0.00
2018-07-20T01:57:40.718Z,0.00
2018-07-20T01:58:40.631Z,0.00
2018-07-20T01:59:40.563Z,0.00
2018-07-20T02:00:40.481Z,0.00
2018-07-20T02:01:40.411Z,0.00
2018-07-20T02:02:40.330Z,0.00
2018-07-20T02:03:40.266Z,0.00
2018-07-20T02:04:40.177Z,0.00
2018-07-20T02:05:40.110Z,0.00
2018-07-20T02:06:40.027Z,0.00
2018-07-20T02:07:39.964Z,0.00
2018-07-20T02:08:39.874Z,0.00
2018-07-20T02:09:39.802Z,0.00
2018-07-20T02:10:39.721Z,0.00
2018-07-20T02:11:39.659Z,0.00
2018-07-20T02:12:39.570Z,0.00
2018-07-20T02:13:39.503Z,0.00
2018-07-20T02:14:39.417Z,0.00
2018-07-20T02:15:39.348Z,0.00
2018-07-20T02:16:39.272Z,0.00
2018-07-20T02:17:39.200Z,0.00
2018-07-20T02:18:39.117Z,0.00
2018-07-20T02:19:39.058Z,0.00
2018-07-20T02:20:38.964Z,0.00
2018-07-20T02:21:38.895Z,0.00
2018-07-20T02:22:38.813Z,0.00
2018-07-20T02:23:38.748Z,0.00
2018-07-20T02:24:38.677Z,0.00
2018-07-20T02:25:38.591Z,0.00
2018-07-20T02:26:38.507Z,0.00
2018-07-20T02:27:38.437Z,0.00
2018-07-20T02:28:38.354Z,0.00
2018-07-20T02:29:38.285Z,0.00
2018-07-20T02:30:38.203Z,0.00
2018-07-20T02:31:38.136Z,0.00
2018-07-20T02:32:38.049Z,0.00
2018-07-20T02:33:37.985Z,0.00
2018-07-20T02:34:37.899Z,0.00
2018-07-20T02:35:37.830Z,0.00
2018-07-20T02:36:37.748Z,0.00
2018-07-20T02:37:37.684Z,0.00
2018-07-20T02:38:37.595Z,0.00
2018-07-20T02:39:37.528Z,0.00
2018-07-20T02:40:37.444Z,0.00
2018-07-20T02:41:37.374Z,0.00
2018-07-20T02:42:37.294Z,0.00
2018-07-20T02:43:37.224Z,0.00
2018-07-20T02:44:37.140Z,0.00
2018-07-20T02:45:37.064Z,0.00
2018-07-20T02:46:36.986Z,0.00
2018-07-20T02:47:36.924Z,0.00
2018-07-20T02:48:36.842Z,0.00
2018-07-20T02:49:36.771Z,0.00
2018-07-20T02:50:36.686Z,0.00
2018-07-20T02:51:36.614Z,0.00
2018-07-20T02:52:36.527Z,0.00
2018-07-20T02:53:36.460Z,0.00
2018-07-20T02:54:36.374Z,0.00
2018-07-20T02:55:36.310Z,0.00
2018-07-20T02:56:36.232Z,0.00
2018-07-20T02:57:36.156Z,0.00
2018-07-20T02:58:36.074Z,0.00
2018-07-20T02:59:36.004Z,0.00
2018-07-20T03:00:35.922Z,0.00
2018-07-20T03:01:35.852Z,0.00
2018-07-20T03:02:35.768Z,0.00
2018-07-20T03:03:35.701Z,0.00
2018-07-20T03:04:35.614Z,0.00
2018-07-20T03:05:35.546Z,0.00
2018-07-20T03:06:35.466Z,0.00
2018-07-20T03:07:35.395Z,0.00
2018-07-20T03:08:35.333Z,4.00
2018-07-20T03:09:35.242Z,0.00
2018-07-20T03:10:35.158Z,0.00
2018-07-20T03:11:35.095Z,4.00
2018-07-20T03:12:35.006Z,0.00
2018-07-20T03:13:34.941Z,0.00
2018-07-20T03:14:34.861Z,4.00
2018-07-20T03:15:34.784Z,0.00
2018-07-20T03:16:34.702Z,4.00
2018-07-20T03:17:34.635Z,0.00
2018-07-20T03:18:34.550Z,4.00
2018-07-20T03:19:34.478Z,0.00
2018-07-20T03:20:34.397Z,4.00
2018-07-20T03:21:34.330Z,4.00
2018-07-20T03:22:34.245Z,4.00
2018-07-20T03:23:34.179Z,4.00
2018-07-20T03:24:34.091Z,8.00
2018-07-20T03:25:34.025Z,8.00
2018-07-20T03:26:33.939Z,4.00
2018-07-20T03:27:33.872Z,8.00
2018-07-20T03:28:33.789Z,8.00
2018-07-20T03:29:33.721Z,8.00
2018-07-20T03:30:33.632Z,12.00
2018-07-20T03:31:33.566Z,12.00
2018-07-20T03:32:33.555Z,12.00
2018-07-20T03:33:33.413Z,12.00
2018-07-20T03:34:33.331Z,16.00
2018-07-20T03:35:33.258Z,12.00
2018-07-20T03:36:33.174Z,16.00
2018-07-20T03:37:33.107Z,20.00
2018-07-20T03:38:33.020Z,16.00
2018-07-20T03:39:32.951Z,20.00
2018-07-20T03:40:32.870Z,24.00
2018-07-20T03:41:32.799Z,20.00
2018-07-20T03:42:32.719Z,24.00
2018-07-20T03:43:32.648Z,24.00
2018-07-20T03:44:32.564Z,28.00
2018-07-20T03:45:32.495Z,28.00
2018-07-20T03:46:32.408Z,28.00
2018-07-20T03:47:32.344Z,32.00
2018-07-20T03:48:32.264Z,32.00
2018-07-20T03:49:32.188Z,36.00
2018-07-20T03:50:32.106Z,36.00
2018-07-20T03:51:32.036Z,36.00
2018-07-20T03:52:31.953Z,36.00
2018-07-20T03:53:31.883Z,40.00
2018-07-20T03:54:31.798Z,40.00
2018-07-20T03:55:31.731Z,44.00
2018-07-20T03:56:31.648Z,44.00
2018-07-20T03:57:31.577Z,48.00
2018-07-20T03:58:31.495Z,48.00
2018-07-20T03:59:31.426Z,52.00
2018-07-20T04:00:31.340Z,56.00
2018-07-20T04:01:31.271Z,60.00
2018-07-20T04:02:31.256Z,60.00
2018-07-20T04:03:31.122Z,64.00
2018-07-20T04:04:31.037Z,64.00
2018-07-20T04:05:30.967Z,68.00
2018-07-20T04:06:30.883Z,72.00
2018-07-20T04:07:30.814Z,72.00
2018-07-20T04:08:30.736Z,72.00
2018-07-20T04:09:30.653Z,72.00
2018-07-20T04:10:30.587Z,80.00
2018-07-20T04:11:30.510Z,80.00
2018-07-20T04:12:30.435Z,84.00
2018-07-20T04:13:30.346Z,84.00
2018-07-20T04:14:30.279Z,84.00
2018-07-20T04:15:30.194Z,84.00
2018-07-20T04:16:30.126Z,88.00
2018-07-20T04:17:30.044Z,88.00
2018-07-20T04:18:29.989Z,92.00
2018-07-20T04:19:29.887Z,96.00
2018-07-20T04:20:29.818Z,100.00
2018-07-20T04:21:29.737Z,100.00
2018-07-20T04:22:29.670Z,104.00
2018-07-20T04:23:29.582Z,108.00
2018-07-20T04:24:29.519Z,108.00
2018-07-20T04:25:29.429Z,116.00
2018-07-20T04:26:29.358Z,120.00
2018-07-20T04:27:29.277Z,120.00
2018-07-20T04:28:29.207Z,124.00
2018-07-20T04:29:29.122Z,128.00
2018-07-20T04:30:29.049Z,128.00
2018-07-20T04:31:28.971Z,128.00
2018-07-20T04:32:28.899Z,136.00
2018-07-20T04:33:28.817Z,136.00
2018-07-20T04:34:28.747Z,136.00
2018-07-20T04:35:28.667Z,140.00
2018-07-20T04:36:28.652Z,140.00
2018-07-20T04:37:28.510Z,144.00
2018-07-20T04:38:28.445Z,148.00
2018-07-20T04:39:28.358Z,148.00
2018-07-20T04:40:28.294Z,152.00
2018-07-20T04:41:28.205Z,156.00
2018-07-20T04:42:28.135Z,160.00
2018-07-20T04:43:28.054Z,160.00
2018-07-20T04:44:27.983Z,160.00
2018-07-20T04:45:27.899Z,164.00
2018-07-20T04:46:27.830Z,168.00
2018-07-20T04:47:27.746Z,168.00
2018-07-20T04:48:27.677Z,172.00
2018-07-20T04:49:27.593Z,172.00
2018-07-20T04:50:27.531Z,176.00
2018-07-20T04:51:27.440Z,176.00
2018-07-20T04:52:27.372Z,176.00
2018-07-20T04:53:27.288Z,180.00
2018-07-20T04:54:27.230Z,184.00
2018-07-20T04:55:27.135Z,188.00
2018-07-20T04:56:27.068Z,188.00
2018-07-20T04:57:26.989Z,192.00
2018-07-20T04:58:26.914Z,192.00
2018-07-20T04:59:26.831Z,196.00
2018-07-20T05:00:26.759Z,196.00
2018-07-20T05:01:26.681Z,200.00
2018-07-20T05:02:26.608Z,200.00
2018-07-20T05:03:26.526Z,200.00
2018-07-20T05:04:26.456Z,204.00
2018-07-20T05:05:26.372Z,208.00
2018-07-20T05:06:26.304Z,212.00
2018-07-20T05:07:26.220Z,212.00
2018-07-20T05:08:26.151Z,216.00
2018-07-20T05:09:26.067Z,220.00
2018-07-20T05:10:26.000Z,220.00
2018-07-20T05:11:25.967Z,220.00
2018-07-20T05:12:25.850Z,224.00
2018-07-20T05:13:25.762Z,228.00
2018-07-20T05:14:25.693Z,232.00
2018-07-20T05:15:25.610Z,232.00
2018-07-20T05:16:25.541Z,236.00
2018-07-20T05:17:25.459Z,240.00
2018-07-20T05:18:25.389Z,240.00
2018-07-20T05:19:25.306Z,248.00
2018-07-20T05:20:25.243Z,248.00
2018-07-20T05:21:25.159Z,252.00
2018-07-20T05:22:25.085Z,256.00
2018-07-20T05:23:25.005Z,256.00
2018-07-20T05:24:24.936Z,260.00
2018-07-20T05:25:24.848Z,264.00
2018-07-20T05:26:24.782Z,264.00
2018-07-20T05:27:24.695Z,268.00
2018-07-20T05:28:24.631Z,272.00
2018-07-20T05:29:24.546Z,276.00
2018-07-20T05:30:24.479Z,276.00
2018-07-20T05:31:24.393Z,284.00
2018-07-20T05:32:24.321Z,284.00
2018-07-20T05:33:24.244Z,288.00
2018-07-20T05:34:24.173Z,296.00
2018-07-20T05:35:24.091Z,300.00
2018-07-20T05:36:24.022Z,304.00
2018-07-20T05:37:23.939Z,312.00
2018-07-20T05:38:23.873Z,328.00
2018-07-20T05:39:23.786Z,340.00
2018-07-20T05:40:23.722Z,352.00
2018-07-20T05:41:23.637Z,356.00
2018-07-20T05:42:23.565Z,360.00
2018-07-20T05:43:23.489Z,368.00
2018-07-20T05:44:23.416Z,380.00
2018-07-20T05:45:23.339Z,392.00
2018-07-20T05:46:23.263Z,400.00
2018-07-20T05:47:23.182Z,408.00
2018-07-20T05:48:23.119Z,420.00
2018-07-20T05:49:23.034Z,440.00
2018-07-20T05:50:22.962Z,472.00
2018-07-20T05:51:22.879Z,508.00
2018-07-20T05:52:22.815Z,528.00
2018-07-20T05:53:22.762Z,524.00
2018-07-20T05:54:22.660Z,512.00
2018-07-20T05:55:22.576Z,500.00
2018-07-20T05:56:22.509Z,496.00
2018-07-20T05:57:22.427Z,488.00
2018-07-20T05:58:22.362Z,484.00
2018-07-20T05:59:22.276Z,488.00
2018-07-20T06:00:22.208Z,484.00
2018-07-20T06:01:22.123Z,500.00
2018-07-20T06:02:22.055Z,496.00
2018-07-20T06:03:21.975Z,496.00
2018-07-20T06:04:21.914Z,516.00
2018-07-20T06:05:21.822Z,512.00
2018-07-20T06:06:21.753Z,512.00
2018-07-20T06:07:21.672Z,516.00
2018-07-20T06:08:21.608Z,516.00
2018-07-20T06:09:21.536Z,516.00
2018-07-20T06:10:21.456Z,516.00
2018-07-20T06:11:21.370Z,520.00
2018-07-20T06:12:21.305Z,516.00
2018-07-20T06:13:21.222Z,524.00
2018-07-20T06:14:21.156Z,524.00
2018-07-20T06:15:21.072Z,528.00
2018-07-20T06:16:21.006Z,536.00
2018-07-20T06:17:20.921Z,540.00
2018-07-20T06:18:20.855Z,548.00
2018-07-20T06:19:20.775Z,556.00
2018-07-20T06:20:20.705Z,568.00
2018-07-20T06:21:20.622Z,584.00
2018-07-20T06:22:20.559Z,596.00
2018-07-20T06:23:20.473Z,616.00
2018-07-20T06:24:20.409Z,632.00
2018-07-20T06:25:20.332Z,652.00
2018-07-20T06:26:20.257Z,676.00
2018-07-20T06:27:20.176Z,700.00
2018-07-20T06:28:20.109Z,724.00
2018-07-20T06:29:20.034Z,740.00
2018-07-20T06:30:19.958Z,736.00
2018-07-20T06:31:19.883Z,716.00
2018-07-20T06:32:19.814Z,680.00
2018-07-20T06:33:19.730Z,576.00
2018-07-20T06:34:19.660Z,456.00
2018-07-20T06:35:19.579Z,436.00
2018-07-20T06:36:19.517Z,440.00
2018-07-20T06:37:19.429Z,452.00
2018-07-20T06:38:19.364Z,696.00
2018-07-20T06:39:19.284Z,708.00
2018-07-20T06:40:19.217Z,720.00
2018-07-20T06:41:19.134Z,724.00
2018-07-20T06:42:19.065Z,744.00
2018-07-20T06:43:18.987Z,764.00
2018-07-20T06:44:18.916Z,784.00
2018-07-20T06:45:18.837Z,792.00
2018-07-20T06:46:18.770Z,816.00
2018-07-20T06:47:18.693Z,824.00
2018-07-20T06:48:18.622Z,780.00
2018-07-20T06:49:18.544Z,804.00
2018-07-20T06:50:18.474Z,796.00
2018-07-20T06:51:18.392Z,780.00
2018-07-20T06:52:18.328Z,788.00
2018-07-20T06:53:18.247Z,848.00
2018-07-20T06:54:18.181Z,892.00
2018-07-20T06:55:18.107Z,920.00
2018-07-20T06:56:18.032Z,940.00
2018-07-20T06:57:17.952Z,948.00
2018-07-20T06:58:17.882Z,964.00
2018-07-20T06:59:17.804Z,972.00
2018-07-20T07:00:17.740Z,984.00
2018-07-20T07:01:17.658Z,984.00
2018-07-20T07:02:17.590Z,968.00
2018-07-20T07:03:17.511Z,956.00
2018-07-20T07:04:17.451Z,928.00
2018-07-20T07:05:17.360Z,720.00
2018-07-20T07:06:17.297Z,672.00
2018-07-20T07:07:17.218Z,688.00
2018-07-20T07:08:17.158Z,680.00
2018-07-20T07:09:17.101Z,748.00
2018-07-20T07:10:17.008Z,728.00
2018-07-20T07:11:16.926Z,848.00
2018-07-20T07:12:16.855Z,836.00
2018-07-20T07:13:16.785Z,916.00
2018-07-20T07:14:16.710Z,928.00
2018-07-20T07:15:16.679Z,852.00
2018-07-20T07:16:16.573Z,784.00
2018-07-20T07:17:16.487Z,788.00
2018-07-20T07:18:16.423Z,824.00
2018-07-20T07:19:16.346Z,904.00
2018-07-20T07:20:16.281Z,1032.00
2018-07-20T07:21:16.197Z,1048.00
2018-07-20T07:22:16.195Z,1032.00
2018-07-20T07:23:16.052Z,1100.00
2018-07-20T07:24:15.988Z,1136.00
2018-07-20T07:25:15.906Z,1240.00
2018-07-20T07:26:15.846Z,1284.00
2018-07-20T07:27:15.762Z,1360.00
2018-07-20T07:28:15.700Z,1216.00
2018-07-20T07:29:15.702Z,1240.00
2018-07-20T07:30:15.551Z,1400.00
2018-07-20T07:31:15.474Z,1484.00
2018-07-20T07:32:15.408Z,1784.00
2018-07-20T07:33:15.328Z,1972.00
2018-07-20T07:34:15.263Z,2004.00
2018-07-20T07:35:15.189Z,1836.00
2018-07-20T07:36:15.121Z,2088.00
2018-07-20T07:37:15.040Z,1988.00
2018-07-20T07:38:14.976Z,1316.00
2018-07-20T07:39:14.897Z,1528.00
2018-07-20T07:40:14.842Z,2500.00
2018-07-20T07:41:14.759Z,2160.00
2018-07-20T07:42:14.802Z,1188.00
2018-07-20T07:43:14.612Z,1108.00
2018-07-20T07:44:14.549Z,1796.00
2018-07-20T07:45:14.473Z,1868.00
2018-07-20T07:46:14.403Z,1704.00
2018-07-20T07:47:14.327Z,1472.00
2018-07-20T07:48:14.265Z,1440.00
2018-07-20T07:49:14.246Z,1332.00
2018-07-20T07:50:14.122Z,1060.00
2018-07-20T07:51:14.042Z,1036.00
2018-07-20T07:52:13.978Z,968.00
2018-07-20T07:53:13.899Z,828.00
2018-07-20T07:54:13.836Z,760.00
2018-07-20T07:55:13.759Z,740.00
2018-07-20T07:56:13.696Z,756.00
2018-07-20T07:57:13.622Z,756.00
2018-07-20T07:58:13.646Z,740.00
2018-07-20T07:59:13.477Z,736.00
2018-07-20T08:00:13.458Z,748.00
2018-07-20T08:01:13.331Z,756.00
2018-07-20T08:02:13.270Z,792.00
2018-07-20T08:03:13.249Z,840.00
2018-07-20T08:04:13.176Z,852.00
2018-07-20T08:05:13.052Z,872.00
2018-07-20T08:06:13.081Z,888.00
2018-07-20T08:07:12.915Z,888.00
2018-07-20T08:08:12.902Z,904.00
2018-07-20T08:09:12.768Z,852.00
2018-07-20T08:10:12.815Z,828.00
2018-07-20T08:11:12.628Z,824.00
2018-07-20T08:12:12.614Z,872.00
2018-07-20T08:13:12.487Z,912.00
2018-07-20T08:14:12.524Z,980.00
2018-07-20T08:15:12.350Z,1060.00
2018-07-20T08:16:12.333Z,996.00
2018-07-20T08:17:12.207Z,820.00
2018-07-20T08:18:12.244Z,864.00
2018-07-20T08:19:12.067Z,984.00
2018-07-20T08:20:12.052Z,1076.00
2018-07-20T08:21:11.927Z,1208.00
2018-07-20T08:22:11.966Z,900.00
2018-07-20T08:23:11.787Z,1300.00
2018-07-20T08:24:11.775Z,1772.00
2018-07-20T08:25:11.646Z,2144.00
2018-07-20T08:26:11.684Z,2336.00
2018-07-20T08:27:11.508Z,2440.00
2018-07-20T08:28:11.490Z,1908.00
2018-07-20T08:29:11.367Z,1304.00
2018-07-20T08:30:11.409Z,2636.00
2018-07-20T08:31:11.236Z,2620.00
2018-07-20T08:32:11.212Z,2772.00
2018-07-20T08:33:11.088Z,2652.00
2018-07-20T08:34:11.124Z,2692.00
2018-07-20T08:35:10.949Z,2648.00
2018-07-20T08:36:10.934Z,2668.00
2018-07-20T08:37:10.809Z,2648.00
2018-07-20T08:38:10.843Z,2384.00
2018-07-20T08:39:10.671Z,2060.00
2018-07-20T08:40:10.652Z,2040.00
2018-07-20T08:41:10.581Z,1932.00
2018-07-20T08:42:10.568Z,2192.00
2018-07-20T08:43:10.390Z,2420.00
2018-07-20T08:44:10.371Z,2540.00
2018-07-20T08:45:10.260Z,2568.00
2018-07-20T08:46:10.286Z,2720.00
2018-07-20T08:47:10.119Z,2832.00
2018-07-20T08:48:10.092Z,2896.00
2018-07-20T08:49:09.982Z,2880.00
2018-07-20T08:50:10.003Z,2908.00
2018-07-20T08:51:09.844Z,2908.00
2018-07-20T08:52:09.782Z,2928.00
2018-07-20T08:53:09.710Z,2948.00
2018-07-20T08:54:09.762Z,2972.00
2018-07-20T08:55:09.569Z,2964.00
2018-07-20T08:56:09.531Z,2960.00
2018-07-20T08:57:09.437Z,2976.00
2018-07-20T08:58:09.442Z,3008.00
2018-07-20T08:59:09.394Z,3008.00
2018-07-20T09:00:09.253Z,3000.00
2018-07-20T09:01:09.172Z,2988.00
2018-07-20T09:02:09.163Z,3008.00
2018-07-20T09:03:09.046Z,3008.00
2018-07-20T09:04:09.075Z,3024.00
2018-07-20T09:05:08.890Z,3012.00
2018-07-20T09:06:08.882Z,2976.00
2018-07-20T09:07:08.757Z,2980.00
2018-07-20T09:08:08.794Z,2932.00
2018-07-20T09:09:08.623Z,2956.00
2018-07-20T09:10:10.654Z,2956.00
2018-07-20T09:11:08.485Z,2956.00
2018-07-20T09:12:08.516Z,2964.00
2018-07-20T09:13:08.353Z,2972.00
2018-07-20T09:14:08.293Z,2884.00
2018-07-20T09:15:08.326Z,2672.00
2018-07-20T09:16:08.155Z,2800.00
2018-07-20T09:17:12.848Z,2716.00
2018-07-20T09:18:08.021Z,2696.00
2018-07-20T09:19:08.049Z,2816.00
2018-07-20T09:20:07.889Z,2764.00
2018-07-20T09:21:07.866Z,2868.00
2018-07-20T09:22:07.756Z,2856.00
2018-07-20T09:23:07.770Z,2732.00
2018-07-20T09:24:07.624Z,2720.00
2018-07-20T09:25:07.575Z,2688.00
2018-07-20T09:26:07.496Z,2640.00
2018-07-20T09:27:07.488Z,2600.00
2018-07-20T09:28:07.355Z,2668.00
2018-07-20T09:29:07.399Z,2672.00
2018-07-20T09:30:07.223Z,2420.00
2018-07-20T09:31:07.209Z,2160.00
2018-07-20T09:32:07.091Z,2348.00
2018-07-20T09:33:07.119Z,2504.00
2018-07-20T09:34:06.966Z,2728.00
2018-07-20T09:35:06.926Z,2616.00
2018-07-20T09:36:06.828Z,2492.00
2018-07-20T09:37:06.839Z,2580.00
2018-07-20T09:38:06.694Z,2596.00
2018-07-20T09:39:06.751Z,2608.00
2018-07-20T09:40:06.570Z,2528.00
2018-07-20T09:41:06.557Z,2368.00
2018-07-20T09:42:06.429Z,2364.00
2018-07-20T09:43:06.464Z,2272.00
2018-07-20T09:44:06.300Z,2444.00
2018-07-20T09:45:06.280Z,2388.00
2018-07-20T09:46:06.170Z,1872.00
2018-07-20T09:47:06.190Z,2412.00
2018-07-20T09:48:06.047Z,2520.00
2018-07-20T09:49:06.109Z,2536.00
2018-07-20T09:50:05.907Z,2608.00
2018-07-20T09:51:05.911Z,2560.00
2018-07-20T09:52:05.782Z,2556.00
2018-07-20T09:53:05.821Z,2420.00
2018-07-20T09:54:05.648Z,2188.00
2018-07-20T09:55:06.655Z,2052.00
2018-07-20T09:56:05.511Z,1852.00
2018-07-20T09:57:05.537Z,1740.00
2018-07-20T09:58:05.429Z,1836.00
2018-07-20T09:59:05.346Z,2092.00
2018-07-20T10:00:05.258Z,2184.00
2018-07-20T10:01:05.262Z,1996.00
2018-07-20T10:02:05.130Z,1936.00
2018-07-20T10:03:05.171Z,2064.00
2018-07-20T10:04:05.728Z,2292.00
2018-07-20T10:05:05.060Z,2292.00
2018-07-20T10:06:04.869Z,2408.00
2018-07-20T10:07:04.889Z,2396.00
2018-07-20T10:08:04.738Z,2376.00
2018-07-20T10:09:04.698Z,2496.00
2018-07-20T10:10:04.608Z,2588.00
2018-07-20T10:11:04.613Z,2548.00
2018-07-20T10:12:04.477Z,2456.00
2018-07-20T10:13:04.520Z,2444.00
2018-07-20T10:14:04.350Z,2508.00
2018-07-20T10:15:04.329Z,2492.00
2018-07-20T10:16:04.221Z,2624.00
2018-07-20T10:17:04.238Z,2584.00
2018-07-20T10:18:04.096Z,2616.00
2018-07-20T10:19:04.091Z,2544.00
2018-07-20T10:20:03.963Z,2632.00
2018-07-20T10:21:03.960Z,2648.00
2018-07-20T10:22:03.833Z,2648.00
2018-07-20T10:23:03.870Z,2656.00
2018-07-20T10:24:03.708Z,2684.00
2018-07-20T10:25:03.679Z,2576.00
2018-07-20T10:26:03.587Z,2404.00
2018-07-20T10:27:03.593Z,2436.00
2018-07-20T10:28:03.448Z,2752.00
2018-07-20T10:29:03.500Z,2664.00
2018-07-20T10:30:03.321Z,2676.00
2018-07-20T10:31:03.308Z,2560.00
2018-07-20T10:32:03.193Z,2016.00
2018-07-20T10:33:03.219Z,1364.00
2018-07-20T10:34:03.066Z,2448.00
2018-07-20T10:35:03.033Z,2868.00
2018-07-20T10:36:02.938Z,2336.00
2018-07-20T10:37:02.941Z,2660.00
2018-07-20T10:38:02.806Z,2720.00
2018-07-20T10:39:02.856Z,2592.00
2018-07-20T10:40:02.692Z,2852.00
2018-07-20T10:41:02.660Z,2812.00
2018-07-20T10:42:02.554Z,2824.00
2018-07-20T10:43:02.601Z,2800.00
2018-07-20T10:44:02.430Z,2572.00
2018-07-20T10:45:02.379Z,2856.00
2018-07-20T10:46:02.300Z,2804.00
2018-07-20T10:47:02.316Z,2800.00
2018-07-20T10:48:02.169Z,2276.00
2018-07-20T10:49:02.201Z,2820.00
2018-07-20T10:50:02.045Z,2788.00
2018-07-20T10:51:02.008Z,2520.00
2018-07-20T10:52:01.951Z,2724.00
2018-07-20T10:53:01.923Z,2572.00
2018-07-20T10:54:01.800Z,2744.00
2018-07-20T10:55:01.739Z,2752.00
2018-07-20T10:56:01.675Z,2728.00
2018-07-20T10:57:01.642Z,2684.00
2018-07-20T10:58:01.539Z,2036.00
2018-07-20T10:59:01.554Z,1324.00
2018-07-20T11:00:01.418Z,1492.00
2018-07-20T11:01:01.460Z,1724.00
2018-07-20T11:02:01.287Z,1492.00
2018-07-20T11:03:01.335Z,1228.00
2018-07-20T11:04:01.164Z,1328.00
2018-07-20T11:05:01.182Z,2340.00
2018-07-20T11:06:01.052Z,2048.00
2018-07-20T11:07:00.990Z,1760.00
2018-07-20T11:08:00.915Z,2012.00
2018-07-20T11:09:00.901Z,1864.00
2018-07-20T11:10:00.779Z,1868.00
2018-07-20T11:11:00.811Z,1816.00
2018-07-20T11:12:00.656Z,1896.00
2018-07-20T11:13:00.622Z,2000.00
2018-07-20T11:14:00.530Z,1800.00
2018-07-20T11:15:00.533Z,1744.00
2018-07-20T11:16:00.406Z,1888.00
2018-07-20T11:17:00.443Z,1576.00
2018-07-20T11:18:00.278Z,1472.00
2018-07-20T11:19:00.252Z,1380.00
2018-07-20T11:20:00.152Z,1324.00
2018-07-20T11:21:00.161Z,1532.00
2018-07-20T11:22:00.028Z,1908.00
2018-07-20T11:23:00.074Z,1492.00
2018-07-20T11:23:59.900Z,1548.00
2018-07-20T11:24:59.882Z,1812.00
2018-07-20T11:25:59.772Z,1660.00
2018-07-20T11:26:59.794Z,1876.00
2018-07-20T11:27:59.675Z,2116.00
2018-07-20T11:28:59.605Z,1940.00
2018-07-20T11:29:59.521Z,1648.00
2018-07-20T11:30:59.513Z,1684.00
2018-07-20T11:31:59.397Z,1564.00
2018-07-20T11:32:59.426Z,1348.00
2018-07-20T11:33:59.268Z,1420.00
2018-07-20T11:34:59.234Z,1568.00
2018-07-20T11:35:59.143Z,1928.00
2018-07-20T11:36:59.144Z,2280.00
2018-07-20T11:37:59.017Z,2124.00
2018-07-20T11:38:59.060Z,1996.00
2018-07-20T11:39:58.892Z,1932.00
2018-07-20T11:40:58.864Z,1856.00
2018-07-20T11:41:58.767Z,1888.00
2018-07-20T11:42:58.775Z,2092.00
2018-07-20T11:43:58.642Z,2004.00
2018-07-20T11:44:58.685Z,2056.00
2018-07-20T11:45:58.514Z,1924.00
2018-07-20T11:46:58.497Z,2312.00
2018-07-20T11:47:58.390Z,2148.00
2018-07-20T11:48:58.407Z,2076.00
2018-07-20T11:49:58.266Z,2036.00
2018-07-20T11:50:58.216Z,2020.00
2018-07-20T11:51:58.138Z,1820.00
2018-07-20T11:52:58.126Z,1636.00
2018-07-20T11:53:58.009Z,1608.00
2018-07-20T11:54:58.085Z,1776.00
2018-07-20T11:55:57.906Z,1900.00
2018-07-20T11:56:57.846Z,1676.00
2018-07-20T11:57:57.757Z,1556.00
2018-07-20T11:58:57.756Z,1492.00
2018-07-20T11:59:57.631Z,1672.00
2018-07-20T12:00:57.666Z,1604.00
2018-07-20T12:01:57.600Z,1620.00
2018-07-20T12:02:57.476Z,1392.00
2018-07-20T12:03:57.380Z,1452.00
2018-07-20T12:04:57.386Z,1408.00
2018-07-20T12:05:57.286Z,1252.00
2018-07-20T12:06:57.329Z,1220.00
2018-07-20T12:07:57.127Z,1196.00
2018-07-20T12:08:57.109Z,1196.00
2018-07-20T12:09:57.001Z,1132.00
2018-07-20T12:10:57.019Z,1152.00
2018-07-20T12:11:56.872Z,1292.00
2018-07-20T12:12:56.827Z,1392.00
2018-07-20T12:13:56.743Z,1440.00
2018-07-20T12:14:56.740Z,1428.00
2018-07-20T12:15:56.620Z,1484.00
2018-07-20T12:16:56.653Z,1456.00
2018-07-20T12:17:56.493Z,1492.00
2018-07-20T12:18:56.492Z,1528.00
2018-07-20T12:19:56.468Z,1608.00
2018-07-20T12:20:56.304Z,1628.00
2018-07-20T12:21:56.273Z,1628.00
2018-07-20T12:22:56.175Z,1616.00
2018-07-20T12:23:56.184Z,1576.00
2018-07-20T12:24:56.058Z,1604.00
2018-07-20T12:25:56.096Z,1684.00
2018-07-20T12:26:55.922Z,1684.00
2018-07-20T12:27:55.903Z,1744.00
2018-07-20T12:28:55.799Z,1752.00
2018-07-20T12:29:55.814Z,1752.00
2018-07-20T12:30:55.668Z,1840.00
2018-07-20T12:31:55.624Z,1880.00
2018-07-20T12:32:55.540Z,1908.00
2018-07-20T12:33:55.547Z,1864.00